Time;durP1;ratioP1;P1;durP2;ratioP2;P2;SDS_P1;SDS_P2;PMS_P1;PMS_P2;Temp;Humidity;BMP_temperature;BMP_pressure;BME280_temperature;BME280_humidity;BME280_pressure;Samples;Min_cycle;Max_cycle;Signal;HPM_P1;HPM_P2
2023/05/03 00:00:51;;;;;;;;;;;;;;;4.87;95.23;100855.22;5072638;28;19920;-69
2023/05/03 00:03:16;;;;;;;;;;;;;;;4.89;95.17;100855.94;5072944;28;19991;-68
2023/05/03 00:05:42;;;;;;;;;;;;;;;4.97;95.58;100832.41;5072926;28;20328;-69
2023/05/03 00:08:07;;;;;;;;;;;;;;;5.02;95.33;100835.50;5072850;28;20003;-69
2023/05/03 00:10:32;;;;;;;;;;;;;;;5.03;94.95;100839.00;5072745;28;19912;-69
2023/05/03 00:12:57;;;;;;;;;;;;;;;5.02;95.13;100846.06;5072616;28;19919;-68
2023/05/03 00:15:23;;;;;;;;;;;;;;;5.04;94.01;100846.78;5071314;28;20019;-68
2023/05/03 00:17:48;;;;;;;;;;;;;;;4.98;94.10;100842.84;5073021;28;20272;-68
2023/05/03 00:20:14;;;;;;;;;;;;;;;5.01;94.88;100852.31;5072404;28;19939;-68
2023/05/03 00:22:40;;;;;;;;;;;;;;;5.04;94.87;100867.91;5072645;28;19995;-69
2023/05/03 00:25:06;;;;;;;;;;;;;;;5.03;94.45;100876.78;5072385;28;19973;-70
2023/05/03 00:27:31;;;;;;;;;;;;;;;5.02;94.68;100864.53;5072516;28;19916;-68
2023/05/03 00:29:57;;;;;;;;;;;;;;;4.97;94.16;100867.56;5072093;28;20341;-67
2023/05/03 00:32:22;;;;;;;;;;;;;;;4.91;94.94;100848.72;5072605;28;19912;-68
2023/05/03 00:34:54;;;;;;;;;;;;;;;4.94;95.07;100859.06;5072573;28;20264;-68
2023/05/03 00:37:20;;;;;;;;;;;;;;;4.95;94.86;100850.19;5072001;28;19984;-69
2023/05/03 00:39:45;;;;;;;;;;;;;;;5.04;94.70;100878.47;5072025;28;20364;-68
2023/05/03 00:42:11;;;;;;;;;;;;;;;5.09;95.58;100881.56;5072123;28;19912;-68
2023/05/03 00:44:36;;;;;;;;;;;;;;;5.09;95.61;100902.69;5072227;28;19927;-69
2023/05/03 00:47:02;;;;;;;;;;;;;;;5.11;96.35;100906.03;5072556;28;19916;-68
2023/05/03 00:49:27;;;;;;;;;;;;;;;5.05;96.13;100917.09;5072227;28;19939;-69
2023/05/03 00:51:53;;;;;;;;;;;;;;;5.06;96.06;100897.66;5072270;28;20361;-67
2023/05/03 00:54:19;;;;;;;;;;;;;;;5.07;95.53;100885.28;5070909;28;19916;-69
2023/05/03 00:56:45;;;;;;;;;;;;;;;5.04;95.45;100894.28;5070797;28;19962;-67
2023/05/03 00:59:10;;;;;;;;;;;;;;;5.00;95.37;100892.88;5072209;28;19913;-68
2023/05/03 01:01:36;;;;;;;;;;;;;;;5.00;95.51;100882.31;5072237;28;19913;-69
2023/05/03 01:04:01;;;;;;;;;;;;;;;4.93;96.37;100913.66;5072156;28;20365;-69
2023/05/03 01:06:27;;;;;;;;;;;;;;;4.95;95.68;100909.06;5072116;28;19996;-68
2023/05/03 01:09:05;;;;;;;;;;;;;;;4.94;96.38;100917.13;5070915;28;19958;-67
2023/05/03 01:11:37;;;;;;;;;;;;;;;4.98;95.78;100913.28;5071964;28;19979;-70
2023/05/03 01:14:29;;;;;;;;;;;;;;;4.99;96.13;100922.88;5072406;28;20007;-69
2023/05/03 01:17:01;;;;;;;;;;;;;;;4.94;95.34;100915.31;5078792;28;19912;-68
2023/05/03 01:19:29;;;;;;;;;;;;;;;5.00;95.25;100919.25;5072111;28;19977;-68
2023/05/03 01:22:15;;;;;;;;;;;;;;;4.99;95.06;100925.50;5071935;28;20434;-69
2023/05/03 01:24:41;;;;;;;;;;;;;;;5.00;95.20;100927.19;5071814;28;20351;-68
2023/05/03 01:27:08;;;;;;;;;;;;;;;4.98;94.74;100927.31;5072173;28;19919;-68
2023/05/03 01:29:34;;;;;;;;;;;;;;;4.99;95.04;100922.88;5071913;28;19913;-68
2023/05/03 01:32:03;;;;;;;;;;;;;;;5.00;95.33;100944.81;5077346;28;19912;-67
2023/05/03 01:34:41;;;;;;;;;;;;;;;4.99;95.04;100938.69;5081084;28;19959;-68
2023/05/03 01:37:09;;;;;;;;;;;;;;;5.02;95.06;100949.00;5074723;28;20271;-69
2023/05/03 01:39:43;;;;;;;;;;;;;;;4.99;94.76;100943.97;5072726;28;20435;-69
2023/05/03 01:42:08;;;;;;;;;;;;;;;4.90;94.73;100940.25;5071797;28;19912;-69
2023/05/03 01:44:35;;;;;;;;;;;;;;;4.89;95.33;100946.50;5071751;28;19919;-69
2023/05/03 01:47:00;;;;;;;;;;;;;;;4.84;94.77;100945.19;5071834;28;19962;-68
2023/05/03 01:49:26;;;;;;;;;;;;;;;4.80;95.82;100946.38;5071942;28;19921;-67
2023/05/03 01:51:51;;;;;;;;;;;;;;;4.79;95.63;100955.25;5075699;28;19966;-68
2023/05/03 01:54:17;;;;;;;;;;;;;;;4.76;96.40;100944.97;5075471;28;20037;-69
2023/05/03 01:56:42;;;;;;;;;;;;;;;4.74;96.05;100958.28;5075531;28;19970;-68
2023/05/03 01:59:07;;;;;;;;;;;;;;;4.74;96.47;100954.78;5075441;28;19912;-67
2023/05/03 02:01:33;;;;;;;;;;;;;;;4.73;96.12;100966.31;5075336;28;20544;-68
2023/05/03 02:03:58;;;;;;;;;;;;;;;4.76;96.10;100958.97;5077999;28;19916;-66
2023/05/03 02:06:24;;;;;;;;;;;;;;;4.78;96.02;100964.13;5076153;28;20320;-69
2023/05/03 02:08:50;;;;;;;;;;;;;;;4.86;95.67;100980.19;5076207;28;19912;-68
2023/05/03 02:11:15;;;;;;;;;;;;;;;4.92;95.81;100975.31;5076467;28;19916;-68
2023/05/03 02:14:00;;;;;;;;;;;;;;;4.96;95.26;101004.94;5074778;28;19913;-67
2023/05/03 02:16:26;;;;;;;;;;;;;;;4.98;94.89;101000.38;5074039;28;19919;-68
2023/05/03 02:18:53;;;;;;;;;;;;;;;4.97;94.86;101011.88;5075393;28;19913;-67
2023/05/03 02:21:18;;;;;;;;;;;;;;;5.00;94.96;101009.00;5076846;28;20014;-67
2023/05/03 02:23:43;;;;;;;;;;;;;;;5.05;94.91;101027.13;5075545;28;20429;-68
2023/05/03 02:26:09;;;;;;;;;;;;;;;5.04;94.63;101026.28;5074876;28;20288;-67
2023/05/03 02:28:34;;;;;;;;;;;;;;;5.05;94.19;101033.25;5074684;28;20303;-69
2023/05/03 02:31:00;;;;;;;;;;;;;;;5.05;94.32;101030.59;5074739;28;19974;-67
2023/05/03 02:33:25;;;;;;;;;;;;;;;5.03;94.29;101029.88;5074917;28;19966;-68
2023/05/03 02:35:50;;;;;;;;;;;;;;;5.05;94.44;101043.78;5074356;28;19912;-68
2023/05/03 02:38:16;;;;;;;;;;;;;;;5.12;94.39;101041.50;5073265;28;19913;-68
2023/05/03 02:40:41;;;;;;;;;;;;;;;5.14;93.82;101039.59;5074537;28;19912;-68
2023/05/03 02:43:06;;;;;;;;;;;;;;;5.12;93.98;101046.78;5074379;28;19916;-69
2023/05/03 02:45:33;;;;;;;;;;;;;;;5.11;93.85;101048.59;5074469;28;20439;-68
2023/05/03 02:47:59;;;;;;;;;;;;;;;5.12;94.08;101044.97;5074634;28;19921;-69
2023/05/03 02:50:24;;;;;;;;;;;;;;;5.08;94.41;101066.47;5074278;28;19981;-68
2023/05/03 02:52:49;;;;;;;;;;;;;;;5.08;93.03;101062.03;5074282;28;20000;-68
2023/05/03 02:55:15;;;;;;;;;;;;;;;5.13;93.80;101064.31;5074292;28;19960;-69
2023/05/03 02:57:40;;;;;;;;;;;;;;;5.08;92.22;101051.47;5074306;28;20417;-67
2023/05/03 03:00:06;;;;;;;;;;;;;;;5.10;91.83;101073.31;5074231;28;19912;-67
2023/05/03 03:02:32;;;;;;;;;;;;;;;5.14;91.87;101068.63;5073851;28;19913;-67
2023/05/03 03:04:57;;;;;;;;;;;;;;;5.10;92.48;101083.88;5074086;28;20201;-68
2023/05/03 03:07:23;;;;;;;;;;;;;;;5.11;92.45;101079.44;5074149;28;20364;-68
2023/05/03 03:09:48;;;;;;;;;;;;;;;5.08;91.80;101095.50;5074205;28;20009;-69
2023/05/03 03:12:13;;;;;;;;;;;;;;;4.98;92.11;101098.03;5074369;28;20255;-68
2023/05/03 03:14:40;;;;;;;;;;;;;;;4.97;92.35;101099.84;5073961;28;20030;-68
2023/05/03 03:17:08;;;;;;;;;;;;;;;5.03;92.35;101111.72;5073913;28;19995;-69
2023/05/03 03:19:34;;;;;;;;;;;;;;;5.04;91.89;101118.66;5073731;28;19913;-69
2023/05/03 03:21:59;;;;;;;;;;;;;;;5.14;91.29;101126.72;5073825;28;19920;-67
2023/05/03 03:24:25;;;;;;;;;;;;;;;5.14;90.64;101111.72;5073648;28;19912;-67
2023/05/03 03:26:50;;;;;;;;;;;;;;;5.13;91.45;101117.94;5073484;28;19939;-69
2023/05/03 03:29:16;;;;;;;;;;;;;;;5.10;91.80;101110.28;5073708;28;19912;-69
2023/05/03 03:31:41;;;;;;;;;;;;;;;5.12;91.36;101134.75;5073360;28;19919;-67
2023/05/03 03:34:06;;;;;;;;;;;;;;;5.16;90.93;101136.19;5073494;28;19912;-68
2023/05/03 03:36:32;;;;;;;;;;;;;;;5.14;90.18;101132.81;5073269;28;20470;-67
2023/05/03 03:38:57;;;;;;;;;;;;;;;5.14;90.48;101138.09;5073251;28;20011;-67
2023/05/03 03:41:22;;;;;;;;;;;;;;;5.19;90.63;101140.38;5073254;28;19921;-69
2023/05/03 03:43:48;;;;;;;;;;;;;;;5.27;90.41;101149.41;5105461;28;19912;-69
2023/05/03 03:46:13;;;;;;;;;;;;;;;5.22;87.41;101161.31;5073040;28;19916;-67
2023/05/03 03:48:38;;;;;;;;;;;;;;;5.20;88.32;101148.22;5073229;28;19925;-68
2023/05/03 03:51:04;;;;;;;;;;;;;;;5.29;88.05;101152.78;5073412;28;20019;-68
2023/05/03 03:53:29;;;;;;;;;;;;;;;5.31;85.24;101165.88;5073032;28;20330;-69
2023/05/03 03:55:55;;;;;;;;;;;;;;;5.31;84.86;101173.78;5073260;28;19916;-68
2023/05/03 03:58:20;;;;;;;;;;;;;;;5.35;84.34;101162.03;5073018;28;19924;-67
2023/05/03 04:00:46;;;;;;;;;;;;;;;5.36;84.38;101166.34;5073115;28;19916;-70
2023/05/03 04:03:11;;;;;;;;;;;;;;;5.41;84.87;101182.66;5072966;28;20011;-70
2023/05/03 04:05:36;;;;;;;;;;;;;;;5.52;84.61;101185.34;5072822;28;19944;-69
2023/05/03 04:08:02;;;;;;;;;;;;;;;5.68;83.93;101184.97;5072937;28;19912;-68
2023/05/03 04:10:27;;;;;;;;;;;;;;;5.68;82.69;101181.47;5072745;28;20279;-68
2023/05/03 04:12:53;;;;;;;;;;;;;;;5.63;83.35;101181.84;5071585;28;19919;-69
2023/05/03 04:15:18;;;;;;;;;;;;;;;5.61;84.10;101194.34;5105222;28;19912;-69
2023/05/03 04:17:43;;;;;;;;;;;;;;;5.61;84.61;101202.25;5072754;28;19916;-70
2023/05/03 04:20:09;;;;;;;;;;;;;;;5.69;85.23;101205.13;5071289;28;20011;-68
2023/05/03 04:22:36;;;;;;;;;;;;;;;5.74;84.78;101207.41;5072713;28;19912;-71
2023/05/03 04:25:01;;;;;;;;;;;;;;;5.73;85.05;101203.09;5071674;28;20295;-69
2023/05/03 04:27:26;;;;;;;;;;;;;;;5.69;85.73;101212.22;5072346;28;20054;-68
2023/05/03 04:29:52;;;;;;;;;;;;;;;5.61;84.91;101223.41;5072666;28;20371;-70
2023/05/03 04:32:22;;;;;;;;;;;;;;;5.45;85.49;101229.00;5072667;28;19958;-68
2023/05/03 04:34:51;;;;;;;;;;;;;;;5.36;86.25;101218.31;5071268;28;20272;-69
2023/05/03 04:37:18;;;;;;;;;;;;;;;5.34;86.53;101220.25;5072971;28;19939;-68
2023/05/03 04:39:44;;;;;;;;;;;;;;;5.32;86.78;101215.09;5072384;28;19912;-69
2023/05/03 04:42:10;;;;;;;;;;;;;;;5.37;86.60;101243.78;5072655;28;19920;-69
2023/05/03 04:44:36;;;;;;;;;;;;;;;5.33;86.39;101227.34;5072594;28;19939;-69
2023/05/03 04:47:01;;;;;;;;;;;;;;;6.42;83.23;101249.56;5072558;28;20356;-66
2023/05/03 04:49:27;;;;;;;;;;;;;;;8.11;76.21;101242.34;5072725;28;19916;-68
2023/05/03 04:51:52;;;;;;;;;;;;;;;9.17;70.78;101254.91;5072324;28;20359;-68
2023/05/03 04:54:17;;;;;;;;;;;;;;;9.03;71.55;101242.06;5072233;28;20427;-70
2023/05/03 04:56:42;;;;;;;;;;;;;;;9.18;70.60;101248.59;5072376;28;19918;-70
2023/05/03 04:59:11;;;;;;;;;;;;;;;9.36;69.72;101256.69;5072241;28;19917;-68
2023/05/03 05:01:36;;;;;;;;;;;;;;;9.33;70.30;101268.47;5072082;28;19962;-69
2023/05/03 05:04:01;;;;;;;;;;;;;;;8.28;72.34;101270.00;5070963;28;19916;-70
2023/05/03 05:06:30;;;;;;;;;;;;;;;7.29;75.39;101275.97;5072197;28;19912;-69
2023/05/03 05:08:58;;;;;;;;;;;;;;;6.68;77.82;101265.16;5071943;28;20328;-70
2023/05/03 05:11:23;;;;;;;;;;;;;;;6.36;80.20;101271.22;5072025;28;20430;-69
2023/05/03 05:13:49;;;;;;;;;;;;;;;6.00;80.99;101290.00;5072037;28;19913;-68
2023/05/03 05:16:14;;;;;;;;;;;;;;;5.95;82.79;101281.59;5072286;28;19919;-68
2023/05/03 05:18:40;;;;;;;;;;;;;;;5.94;82.45;101287.84;5071732;28;19912;-68
2023/05/03 05:21:05;;;;;;;;;;;;;;;5.90;83.84;101274.03;5071670;28;19981;-67
2023/05/03 05:23:30;;;;;;;;;;;;;;;5.92;83.88;101284.47;5072189;28;19959;-67
2023/05/03 05:25:59;;;;;;;;;;;;;;;5.85;82.44;101292.84;5074712;28;20348;-67
2023/05/03 05:28:25;;;;;;;;;;;;;;;5.93;83.28;101283.50;5076409;28;19913;-70
2023/05/03 05:30:51;;;;;;;;;;;;;;;5.88;83.20;101295.25;5075890;28;19912;-70
2023/05/03 05:33:16;;;;;;;;;;;;;;;5.90;82.70;101288.09;5076002;28;19920;-69
2023/05/03 05:35:41;;;;;;;;;;;;;;;5.92;82.82;101290.59;5076318;28;20345;-74
2023/05/03 05:38:07;;;;;;;;;;;;;;;5.94;81.74;101290.47;5074909;28;19920;-71
2023/05/03 05:40:32;;;;;;;;;;;;;;;6.00;82.41;101293.47;5075869;28;19919;-72
2023/05/03 05:42:58;;;;;;;;;;;;;;;6.07;82.23;101296.47;5074621;28;19916;-71
2023/05/03 05:45:23;;;;;;;;;;;;;;;6.14;82.06;101305.63;5076153;28;19919;-71
2023/05/03 05:47:49;;;;;;;;;;;;;;;6.08;80.04;101300.84;5075878;28;19970;-71
2023/05/03 05:50:14;;;;;;;;;;;;;;;5.95;80.39;101300.09;5075688;28;19960;-73
2023/05/03 05:52:40;;;;;;;;;;;;;;;5.82;81.38;101298.38;5075558;28;19956;-71
2023/05/03 05:55:06;;;;;;;;;;;;;;;5.86;81.91;101309.56;5076131;28;20362;-69
2023/05/03 05:57:31;;;;;;;;;;;;;;;5.98;81.42;101319.19;5076499;28;19913;-75
2023/05/03 05:59:57;;;;;;;;;;;;;;;5.98;79.98;101313.91;5076503;28;19920;-74
2023/05/03 06:02:23;;;;;;;;;;;;;;;6.03;81.43;101310.91;5075541;28;19967;-72
2023/05/03 06:04:49;;;;;;;;;;;;;;;6.03;79.95;101321.47;5075408;28;19919;-72
2023/05/03 06:07:15;;;;;;;;;;;;;;;5.95;81.07;101326.53;5075307;28;19912;-72
2023/05/03 06:09:41;;;;;;;;;;;;;;;5.95;82.04;101329.19;5075446;28;20224;-71
2023/05/03 06:12:07;;;;;;;;;;;;;;;5.97;80.67;101321.97;5075133;28;19970;-71
2023/05/03 06:14:32;;;;;;;;;;;;;;;5.99;80.93;101325.31;5075884;28;19964;-70
2023/05/03 06:16:58;;;;;;;;;;;;;;;6.01;81.10;101321.59;5075080;28;19913;-70
2023/05/03 06:19:24;;;;;;;;;;;;;;;6.01;81.74;101334.81;5074949;28;20374;-71
2023/05/03 06:21:49;;;;;;;;;;;;;;;6.03;82.10;101332.06;5074682;28;19962;-69
2023/05/03 06:24:19;;;;;;;;;;;;;;;6.02;80.58;101346.25;5075011;28;20256;-70
2023/05/03 06:26:45;;;;;;;;;;;;;;;5.97;81.32;101351.88;5075142;28;19912;-71
2023/05/03 06:29:10;;;;;;;;;;;;;;;5.99;81.16;101346.47;5074967;28;19913;-71
2023/05/03 06:31:36;;;;;;;;;;;;;;;5.97;80.35;101345.75;5074863;28;20030;-69
2023/05/03 06:34:01;;;;;;;;;;;;;;;5.98;80.77;101339.50;5074683;28;20015;-69
2023/05/03 06:36:29;;;;;;;;;;;;;;;6.02;81.08;101348.88;5073661;28;20449;-70
2023/05/03 06:38:54;;;;;;;;;;;;;;;6.02;80.17;101355.00;5075791;28;20016;-71
2023/05/03 06:41:20;;;;;;;;;;;;;;;6.02;80.91;101354.16;5075349;28;20010;-68
2023/05/03 06:43:45;;;;;;;;;;;;;;;5.97;82.53;101369.56;5074244;28;19916;-70
2023/05/03 06:46:11;;;;;;;;;;;;;;;5.92;81.52;101369.06;5074647;28;20010;-73
2023/05/03 06:48:37;;;;;;;;;;;;;;;6.01;80.79;101357.78;5074519;28;19923;-71
2023/05/03 06:51:02;;;;;;;;;;;;;;;6.08;81.35;101367.78;5074540;28;19913;-70
2023/05/03 06:53:27;;;;;;;;;;;;;;;6.12;79.99;101369.22;5074434;28;19940;-71
2023/05/03 06:55:53;;;;;;;;;;;;;;;6.04;80.08;101373.41;5107036;28;19918;-71
2023/05/03 06:58:18;;;;;;;;;;;;;;;6.06;81.42;101364.38;5074235;28;19916;-70
2023/05/03 07:00:45;;;;;;;;;;;;;;;6.15;79.89;101386.66;5074169;28;19923;-69
2023/05/03 07:03:10;;;;;;;;;;;;;;;6.15;80.20;101376.06;5074031;28;19965;-69
2023/05/03 07:05:36;;;;;;;;;;;;;;;6.17;78.96;101379.44;5074011;28;20019;-70
2023/05/03 07:08:02;;;;;;;;;;;;;;;6.20;79.72;101384.50;5074264;28;19950;-70
2023/05/03 07:10:29;;;;;;;;;;;;;;;6.19;79.61;101385.44;5073858;28;19912;-69
2023/05/03 07:12:55;;;;;;;;;;;;;;;6.31;80.30;101394.22;5055172;28;20003;-70
2023/05/03 07:15:24;;;;;;;;;;;;;;;6.42;78.69;101392.44;5073499;28;20021;-69
2023/05/03 07:17:49;;;;;;;;;;;;;;;6.46;78.47;101398.34;5074126;28;20279;-71
2023/05/03 07:20:15;;;;;;;;;;;;;;;6.56;78.52;101399.28;5074019;28;19918;-70
2023/05/03 07:22:40;;;;;;;;;;;;;;;6.58;77.98;101402.66;5074117;28;19912;-69
2023/05/03 07:25:06;;;;;;;;;;;;;;;6.60;77.36;101397.22;5074020;28;20326;-70
2023/05/03 07:27:32;;;;;;;;;;;;;;;6.63;76.68;101402.28;5074239;28;19912;-70
2023/05/03 07:29:57;;;;;;;;;;;;;;;6.63;76.90;101404.91;5074109;28;20356;-71
2023/05/03 07:32:22;;;;;;;;;;;;;;;6.64;78.00;101406.59;5073753;28;20309;-70
2023/05/03 07:34:48;;;;;;;;;;;;;;;6.61;76.49;101413.00;5072506;28;19965;-70
2023/05/03 07:37:13;;;;;;;;;;;;;;;6.63;76.57;101424.28;5074057;28;20023;-70
2023/05/03 07:39:40;;;;;;;;;;;;;;;6.68;77.03;101421.31;5073674;28;20018;-71
2023/05/03 07:42:06;;;;;;;;;;;;;;;6.70;76.86;101427.31;5073742;28;19917;-70
2023/05/03 07:44:31;;;;;;;;;;;;;;;6.78;75.78;101422.25;5073480;28;20486;-70
2023/05/03 07:46:57;;;;;;;;;;;;;;;6.80;76.71;101428.25;5072971;28;19954;-70
2023/05/03 07:49:22;;;;;;;;;;;;;;;6.88;76.46;101436.44;5073186;28;19924;-70
2023/05/03 07:51:50;;;;;;;;;;;;;;;6.88;76.91;101431.13;5072859;28;20081;-71
2023/05/03 07:54:15;;;;;;;;;;;;;;;6.98;76.25;101439.22;5073270;28;19920;-70
2023/05/03 07:56:40;;;;;;;;;;;;;;;7.02;76.06;101430.88;5071499;28;19955;-70
2023/05/03 07:59:06;;;;;;;;;;;;;;;7.02;76.35;101438.84;5072183;28;19916;-69
2023/05/03 08:01:32;;;;;;;;;;;;;;;7.00;75.41;101451.34;5072759;28;19916;-69
2023/05/03 08:03:57;;;;;;;;;;;;;;;7.00;74.74;101440.75;5072032;28;19912;-69
2023/05/03 08:06:23;;;;;;;;;;;;;;;7.10;75.77;101452.28;5072185;28;19948;-70
2023/05/03 08:08:48;;;;;;;;;;;;;;;7.15;75.11;101450.13;5072891;28;19952;-69
2023/05/03 08:11:14;;;;;;;;;;;;;;;7.22;74.16;101449.59;5072202;28;19985;-69
2023/05/03 08:13:40;;;;;;;;;;;;;;;7.26;74.47;101456.38;5072620;28;20356;-70
2023/05/03 08:16:05;;;;;;;;;;;;;;;7.28;73.66;101449.13;5072541;28;20298;-69
2023/05/03 08:18:34;;;;;;;;;;;;;;;7.34;73.56;101448.63;5071461;28;20356;-69
2023/05/03 08:20:59;;;;;;;;;;;;;;;7.37;73.15;101449.22;5072008;28;19919;-70
2023/05/03 08:23:25;;;;;;;;;;;;;;;7.43;73.73;101461.97;5072163;28;19912;-71
2023/05/03 08:25:50;;;;;;;;;;;;;;;7.51;72.96;101449.88;5072214;28;19912;-70
2023/05/03 08:28:15;;;;;;;;;;;;;;;7.54;73.03;101466.41;5072562;28;19917;-70
2023/05/03 08:30:41;;;;;;;;;;;;;;;7.60;71.99;101471.19;5072020;28;19912;-71
2023/05/03 08:33:10;;;;;;;;;;;;;;;7.68;71.36;101466.09;5071985;28;19913;-69
2023/05/03 08:35:36;;;;;;;;;;;;;;;7.71;70.62;101470.31;5071785;28;19917;-70
2023/05/03 08:38:01;;;;;;;;;;;;;;;7.61;71.15;101472.03;5072085;28;20441;-70
2023/05/03 08:40:27;;;;;;;;;;;;;;;7.62;71.78;101479.03;5072074;28;19921;-69
2023/05/03 08:42:54;;;;;;;;;;;;;;;7.64;72.57;101477.94;5072078;28;20383;-70
2023/05/03 08:45:21;;;;;;;;;;;;;;;7.72;72.63;101470.16;5071699;28;20380;-69
2023/05/03 08:47:52;;;;;;;;;;;;;;;7.79;72.88;101478.44;5072034;28;19932;-70
2023/05/03 08:50:17;;;;;;;;;;;;;;;7.75;72.61;101477.03;5071780;28;19916;-69
2023/05/03 08:52:43;;;;;;;;;;;;;;;7.82;73.60;101491.50;5071851;28;19919;-69
2023/05/03 08:55:09;;;;;;;;;;;;;;;7.85;72.93;101490.38;5070811;28;19912;-68
2023/05/03 08:57:35;;;;;;;;;;;;;;;7.85;72.28;101493.03;5071809;28;19913;-68
2023/05/03 09:00:00;;;;;;;;;;;;;;;7.90;71.55;101497.00;5070703;28;19935;-69
2023/05/03 09:02:26;;;;;;;;;;;;;;;7.97;70.92;101499.97;5070603;28;19969;-69
2023/05/03 09:04:52;;;;;;;;;;;;;;;8.02;70.63;101509.22;5071553;28;19924;-69
2023/05/03 09:07:19;;;;;;;;;;;;;;;8.12;71.48;101514.63;5070293;28;19920;-70
2023/05/03 09:09:44;;;;;;;;;;;;;;;8.23;70.84;101517.19;5071650;28;20418;-70
2023/05/03 09:12:10;;;;;;;;;;;;;;;8.23;68.99;101506.59;5072046;28;19959;-70
2023/05/03 09:14:45;;;;;;;;;;;;;;;8.15;68.87;101517.00;5071712;28;19939;-71
2023/05/03 09:17:15;;;;;;;;;;;;;;;8.22;68.25;101504.91;5069774;28;19955;-69
2023/05/03 09:19:50;;;;;;;;;;;;;;;8.23;68.63;101519.84;5071381;28;19919;-68
2023/05/03 09:22:16;;;;;;;;;;;;;;;8.28;68.15;101517.66;5069343;28;19916;-68
2023/05/03 09:24:49;;;;;;;;;;;;;;;8.34;68.52;101519.81;5071473;28;19912;-68
2023/05/03 09:27:20;;;;;;;;;;;;;;;8.31;68.10;101529.81;5068876;28;20280;-67
2023/05/03 09:29:45;;;;;;;;;;;;;;;8.33;68.52;101538.50;5071356;28;19913;-68
2023/05/03 09:32:11;;;;;;;;;;;;;;;8.42;68.27;101547.53;5071735;28;19912;-68
2023/05/03 09:34:37;;;;;;;;;;;;;;;8.49;67.42;101540.75;5071489;28;19916;-69
2023/05/03 09:37:02;;;;;;;;;;;;;;;8.47;66.88;101540.03;5070146;28;19912;-68
2023/05/03 09:39:28;;;;;;;;;;;;;;;8.48;66.87;101544.38;5071669;28;20364;-71
2023/05/03 09:41:53;;;;;;;;;;;;;;;8.57;67.23;101544.41;5071026;28;19958;-70
2023/05/03 09:44:19;;;;;;;;;;;;;;;8.61;66.73;101543.19;5071644;28;19920;-70
2023/05/03 09:47:03;;;;;;;;;;;;;;;8.64;66.26;101558.00;5071617;28;20036;-69
2023/05/03 09:49:30;;;;;;;;;;;;;;;8.73;66.51;101548.44;5071527;28;19978;-68
2023/05/03 09:51:55;;;;;;;;;;;;;;;8.69;64.26;101550.50;5070946;28;19917;-68
2023/05/03 09:54:21;;;;;;;;;;;;;;;8.73;64.91;101554.59;5071380;28;20440;-68
2023/05/03 09:56:48;;;;;;;;;;;;;;;8.90;64.96;101551.31;5071087;28;19912;-68
2023/05/03 09:59:13;;;;;;;;;;;;;;;9.10;63.54;101559.38;5070232;28;20263;-68
2023/05/03 10:01:39;;;;;;;;;;;;;;;9.20;61.94;101565.56;5070964;28;19916;-70
2023/05/03 10:04:05;;;;;;;;;;;;;;;9.16;63.36;101558.84;5071375;28;20407;-71
2023/05/03 10:06:35;;;;;;;;;;;;;;;9.22;63.31;101566.25;5071415;28;20031;-70
2023/05/03 10:09:07;;;;;;;;;;;;;;;9.17;62.54;101566.66;5071259;28;19913;-69
2023/05/03 10:11:35;;;;;;;;;;;;;;;9.23;62.39;101573.25;5074304;28;19916;-69
2023/05/03 10:14:00;;;;;;;;;;;;;;;9.20;63.26;101577.03;5075013;28;20383;-71
2023/05/03 10:16:28;;;;;;;;;;;;;;;9.23;62.54;101576.75;5074828;28;19916;-70
2023/05/03 10:18:58;;;;;;;;;;;;;;;9.32;62.60;101572.47;5074640;28;19912;-69
2023/05/03 10:21:28;;;;;;;;;;;;;;;9.54;61.32;101577.59;5074966;28;19945;-68
2023/05/03 10:24:09;;;;;;;;;;;;;;;9.71;59.62;101591.19;5074782;28;19912;-68
2023/05/03 10:26:35;;;;;;;;;;;;;;;9.89;56.95;101586.91;5074696;28;19970;-69
2023/05/03 10:29:00;;;;;;;;;;;;;;;9.87;55.59;101600.34;5074881;28;19912;-69
2023/05/03 10:31:45;;;;;;;;;;;;;;;9.96;55.79;101606.63;5074937;28;20406;-69
2023/05/03 10:34:21;;;;;;;;;;;;;;;10.12;55.70;101596.31;5074020;28;19924;-69
2023/05/03 10:36:49;;;;;;;;;;;;;;;10.17;56.30;101604.72;5074785;28;19923;-69
2023/05/03 10:39:15;;;;;;;;;;;;;;;10.15;53.37;101614.66;5074486;28;20245;-69
2023/05/03 10:41:40;;;;;;;;;;;;;;;10.07;53.22;101617.16;5076643;28;19913;-66
2023/05/03 10:44:24;;;;;;;;;;;;;;;10.11;54.17;101626.53;5076607;28;19917;-67
2023/05/03 10:46:52;;;;;;;;;;;;;;;10.27;53.05;101628.69;5077185;28;19916;-69
2023/05/03 10:49:18;;;;;;;;;;;;;;;10.35;53.96;101623.50;5073437;28;20386;-70
2023/05/03 10:51:44;;;;;;;;;;;;;;;10.65;53.50;101625.16;5075503;28;19912;-67
2023/05/03 10:54:10;;;;;;;;;;;;;;;10.94;52.56;101634.94;5074416;28;20280;-68
2023/05/03 10:56:51;;;;;;;;;;;;;;;11.09;50.65;101645.03;5073801;28;19952;-69
2023/05/03 10:59:17;;;;;;;;;;;;;;;11.07;49.17;101651.47;5072448;28;19916;-67
2023/05/03 11:01:45;;;;;;;;;;;;;;;11.24;50.99;101650.72;5075469;28;19919;-67
2023/05/03 11:04:32;;;;;;;;;;;;;;;11.44;49.60;101659.50;5075509;28;19917;-67
2023/05/03 11:06:58;;;;;;;;;;;;;;;11.41;47.87;101671.31;5068776;28;19912;-69
2023/05/03 11:09:33;;;;;;;;;;;;;;;11.38;47.91;101668.09;5073887;28;19912;-68
2023/05/03 11:11:58;;;;;;;;;;;;;;;11.46;47.86;101673.53;5071309;28;19966;-68
2023/05/03 11:14:24;;;;;;;;;;;;;;;11.56;46.64;101670.81;5073628;28;20306;-67
2023/05/03 11:16:50;;;;;;;;;;;;;;;11.61;47.21;101676.56;5073763;28;19923;-67
2023/05/03 11:19:16;;;;;;;;;;;;;;;11.40;46.76;101677.63;5073597;28;20015;-69
2023/05/03 11:21:41;;;;;;;;;;;;;;;11.34;47.31;101683.53;5072930;28;20309;-69
2023/05/03 11:24:07;;;;;;;;;;;;;;;11.18;47.25;101697.47;5073298;28;20419;-68
2023/05/03 11:26:36;;;;;;;;;;;;;;;11.09;47.06;101694.81;5073671;28;19912;-67
2023/05/03 11:29:01;;;;;;;;;;;;;;;10.92;46.35;101699.03;5073657;28;19952;-68
2023/05/03 11:31:27;;;;;;;;;;;;;;;10.78;46.68;101688.84;5073384;28;20391;-69
2023/05/03 11:33:52;;;;;;;;;;;;;;;10.58;45.62;101698.66;5073217;28;19912;-68
2023/05/03 11:36:17;;;;;;;;;;;;;;;10.58;45.79;101698.66;5072897;28;19974;-68
2023/05/03 11:38:44;;;;;;;;;;;;;;;10.61;46.03;101709.00;5072817;28;19912;-69
2023/05/03 11:41:13;;;;;;;;;;;;;;;10.57;45.93;101706.78;5073308;28;19912;-69
2023/05/03 11:43:42;;;;;;;;;;;;;;;10.63;46.37;101712.38;5073047;28;20414;-68
2023/05/03 11:46:08;;;;;;;;;;;;;;;10.64;45.42;101715.88;5072469;28;20547;-69
2023/05/03 11:48:33;;;;;;;;;;;;;;;10.65;46.07;101714.91;5072712;28;19920;-68
2023/05/03 11:50:59;;;;;;;;;;;;;;;10.60;46.32;101704.66;5072707;28;20256;-69
2023/05/03 11:53:25;;;;;;;;;;;;;;;10.84;47.48;101707.75;5072718;28;20391;-70
2023/05/03 11:55:53;;;;;;;;;;;;;;;11.02;47.19;101717.72;5072882;28;19919;-70
2023/05/03 11:58:21;;;;;;;;;;;;;;;11.33;47.91;101703.19;5072845;28;19912;-69
2023/05/03 12:00:48;;;;;;;;;;;;;;;11.55;47.31;101719.81;5072743;28;19956;-69
2023/05/03 12:03:20;;;;;;;;;;;;;;;11.67;44.92;101703.50;5069816;28;20003;-69
2023/05/03 12:05:46;;;;;;;;;;;;;;;11.47;42.90;101717.88;5072670;28;20041;-68
2023/05/03 12:08:12;;;;;;;;;;;;;;;11.49;43.27;101722.09;5071289;28;19912;-68
2023/05/03 12:10:38;;;;;;;;;;;;;;;11.65;44.45;101724.16;5071141;28;19913;-69
2023/05/03 12:13:04;;;;;;;;;;;;;;;11.54;43.11;101728.81;5072683;28;20046;-68
2023/05/03 12:15:34;;;;;;;;;;;;;;;11.53;45.68;101724.47;5072436;28;19924;-69
2023/05/03 12:18:00;;;;;;;;;;;;;;;11.41;46.23;101723.81;5072160;28;20011;-69
2023/05/03 12:20:29;;;;;;;;;;;;;;;11.17;47.19;101734.94;5071945;28;19958;-71
2023/05/03 12:22:55;;;;;;;;;;;;;;;10.81;48.12;101720.53;5071006;28;20283;-68
2023/05/03 12:25:21;;;;;;;;;;;;;;;10.64;48.83;101730.03;5072450;28;19956;-69
2023/05/03 12:27:47;;;;;;;;;;;;;;;10.69;48.38;101727.78;5072208;28;20256;-68
2023/05/03 12:30:13;;;;;;;;;;;;;;;10.83;47.65;101730.06;5072253;28;19982;-67
2023/05/03 12:32:38;;;;;;;;;;;;;;;11.02;47.62;101731.03;5072028;28;19958;-69
2023/05/03 12:35:04;;;;;;;;;;;;;;;11.15;45.54;101729.75;5071461;28;19992;-68
2023/05/03 12:37:30;;;;;;;;;;;;;;;11.02;44.57;101729.22;5072313;28;19966;-68
2023/05/03 12:39:55;;;;;;;;;;;;;;;11.04;44.58;101737.06;5072592;28;19916;-69
2023/05/03 12:42:21;;;;;;;;;;;;;;;11.01;45.26;101742.69;5072323;28;19912;-69